Terminal Aerodrome Forecast
Issued by NWS Charleston, WV

Current Version | Previous Version | Graphics & Text | Print | Product List | Glossary On
Versions: 1 2 3 4 5 6 7 8 9 10 11 12 13 14 15 16 17 18 19 20 21 22 23 24 25 26 27 28
000
FTUS41 KRLX 301744
TAFPKB
TAF
KPKB 301744Z 3018/0118 23008KT P6SM SCT030
     FM301900 23010G15KT P6SM VCTS BKN040CB
      TEMPO 3020/3021 2SM TSRA BKN030CB OVC050
     FM302300 26007KT P6SM BKN040
     FM010600 20004KT 5SM BR BKN035
     FM010800 VRB03KT 5SM BR BKN015
     FM011300 21004KT P6SM SCT020=

USA.gov is the U.S. government's official web portal to all federal, state and local government web resources and services.